Terminal Aerodrome Forecast
Issued by NWS

Home | Current Version | Previous Version | Graphics & Text | Print | Product List | Glossary On
Versions: 1 2 3 4 5 6 7 8 9 10 11 12 13 14 15 16 17
000
FTUS43 KBIS 152300
TAFDIK
TAF
KDIK 152339Z 1600/1624 25008KT P6SM SCT060
     FM160300 34013KT P6SM VCSH SCT050 OVC090
     FM160500 36014G19KT P6SM -RA BKN050 OVC070
     FM161200 35013G18KT P6SM VCSH BKN080 OVC100
     FM161500 36012G17KT P6SM BKN090
     FM161900 36010KT P6SM BKN110=

USA.gov is the U.S. government's official web portal to all federal, state and local government web resources and services.